createdAt,value
2022-10-28T00:02:25.108Z,62.94
2022-10-28T00:04:58.610Z,62.72
2022-10-28T00:07:31.748Z,62.77
2022-10-28T00:10:05.161Z,62.97
2022-10-28T00:12:39.373Z,63.17
2022-10-28T00:15:13.695Z,63.42
2022-10-28T00:17:46.786Z,63.50
2022-10-28T00:20:20.289Z,63.30
2022-10-28T00:22:53.786Z,63.16
2022-10-28T00:25:27.190Z,62.85
2022-10-28T00:28:00.587Z,62.62
2022-10-28T00:30:33.716Z,62.53
2022-10-28T00:33:07.157Z,62.47
2022-10-28T00:35:40.462Z,62.49
2022-10-28T00:38:13.573Z,62.36
2022-10-28T00:40:46.607Z,62.35
2022-10-28T00:43:34.711Z,62.43
2022-10-28T00:46:11.412Z,62.54
2022-10-28T00:48:48.018Z,62.54
2022-10-28T00:51:24.310Z,62.62
2022-10-28T00:53:58.541Z,62.54
2022-10-28T00:56:34.720Z,62.45
2022-10-28T00:59:10.856Z,62.34
2022-10-28T01:01:44.324Z,62.58
2022-10-28T01:04:17.928Z,62.52
2022-10-28T01:06:52.180Z,62.47
2022-10-28T01:12:01.971Z,62.07
2022-10-28T01:14:44.553Z,61.78
2022-10-28T01:17:27.906Z,61.76
2022-10-28T01:20:29.149Z,61.95
2022-10-28T01:23:05.304Z,61.88
2022-10-28T01:25:55.943Z,61.96
2022-10-28T01:29:01.574Z,62.00
2022-10-28T01:31:40.465Z,61.82
2022-10-28T01:34:18.124Z,61.77
2022-10-28T01:36:57.294Z,61.84
2022-10-28T01:39:36.179Z,62.07
2022-10-28T01:42:16.564Z,62.39
2022-10-28T01:44:52.795Z,62.67
2022-10-28T01:47:28.992Z,62.71
2022-10-28T01:50:05.456Z,62.78
2022-10-28T01:52:41.992Z,63.03
2022-10-28T01:55:18.706Z,62.92
2022-10-28T01:57:55.101Z,63.04
2022-10-28T02:00:29.180Z,63.14
2022-10-28T02:03:02.497Z,63.19
2022-10-28T02:05:43.502Z,63.08
2022-10-28T02:08:27.995Z,62.83
2022-10-28T02:11:12.348Z,62.73
2022-10-28T02:13:49.500Z,62.75
2022-10-28T02:16:26.497Z,63.18
2022-10-28T02:19:03.780Z,63.27
2022-10-28T02:21:41.203Z,63.43
2022-10-28T02:24:17.521Z,63.36
2022-10-28T02:26:55.366Z,63.28
2022-10-28T02:29:30.721Z,63.12
2022-10-28T02:32:06.698Z,62.12
2022-10-28T02:34:42.817Z,62.34
2022-10-28T02:37:18.904Z,62.50
2022-10-28T02:39:55.133Z,63.09
2022-10-28T02:42:32.025Z,63.19
2022-10-28T02:45:08.153Z,63.23
2022-10-28T02:47:44.369Z,63.05
2022-10-28T02:50:20.966Z,63.23
2022-10-28T02:52:57.069Z,63.12
2022-10-28T02:55:33.630Z,63.46
2022-10-28T02:58:08.318Z,63.43
2022-10-28T03:00:46.357Z,63.21
2022-10-28T03:03:20.061Z,63.22
2022-10-28T03:05:53.404Z,63.34
2022-10-28T03:08:26.658Z,63.31
2022-10-28T03:10:59.936Z,63.37
2022-10-28T03:13:33.196Z,63.39
2022-10-28T03:16:07.168Z,63.37
2022-10-28T03:18:40.563Z,63.36
2022-10-28T03:21:13.789Z,63.46
2022-10-28T03:23:47.143Z,63.61
2022-10-28T03:26:20.772Z,63.57
2022-10-28T03:28:54.329Z,63.54
2022-10-28T03:31:27.829Z,63.56
2022-10-28T03:34:01.140Z,63.66
2022-10-28T03:36:34.373Z,63.64
2022-10-28T03:39:07.632Z,63.46
2022-10-28T03:41:41.164Z,63.83
2022-10-28T03:44:14.527Z,63.88
2022-10-28T03:46:48.036Z,63.91
2022-10-28T03:49:21.187Z,63.80
2022-10-28T03:51:54.833Z,63.74
2022-10-28T03:54:28.336Z,63.76
2022-10-28T03:57:01.632Z,63.63
2022-10-28T03:59:35.129Z,63.59
2022-10-28T04:02:09.089Z,63.53
2022-10-28T04:04:42.458Z,63.67
2022-10-28T04:07:15.818Z,63.78
2022-10-28T04:09:50.766Z,63.70
2022-10-28T04:12:24.233Z,63.80
2022-10-28T04:14:57.700Z,63.77
2022-10-28T04:17:31.266Z,63.75
2022-10-28T04:20:04.863Z,63.81
2022-10-28T04:22:38.245Z,64.01
2022-10-28T04:25:12.195Z,64.14
2022-10-28T04:27:46.389Z,64.39
2022-10-28T04:30:20.198Z,64.29
2022-10-28T04:32:53.421Z,64.28
2022-10-28T04:35:27.542Z,64.15
2022-10-28T04:38:01.195Z,64.12
2022-10-28T04:40:34.549Z,64.20
2022-10-28T04:43:09.948Z,64.30
2022-10-28T04:45:43.201Z,64.25
2022-10-28T04:48:16.773Z,64.42
2022-10-28T04:50:51.125Z,64.63
2022-10-28T04:53:24.408Z,64.83
2022-10-28T04:56:00.639Z,64.77
2022-10-28T04:58:33.730Z,64.76
2022-10-28T05:01:10.548Z,64.87
2022-10-28T05:03:43.963Z,65.32
2022-10-28T05:06:17.007Z,65.68
2022-10-28T05:08:50.312Z,65.79
2022-10-28T05:11:23.495Z,66.13
2022-10-28T05:13:57.117Z,66.14
2022-10-28T05:16:30.619Z,66.16
2022-10-28T05:19:04.103Z,66.19
2022-10-28T05:21:37.385Z,66.14
2022-10-28T05:24:11.564Z,66.23
2022-10-28T05:26:44.913Z,66.04
2022-10-28T05:29:19.743Z,66.09
2022-10-28T05:31:53.231Z,66.28
2022-10-28T05:34:26.507Z,66.35
2022-10-28T05:36:59.758Z,66.59
2022-10-28T05:39:33.045Z,66.62
2022-10-28T05:42:06.852Z,66.42
2022-10-28T05:44:40.636Z,66.31
2022-10-28T05:47:14.029Z,66.30
2022-10-28T05:49:47.428Z,66.33
2022-10-28T05:52:20.862Z,66.29
2022-10-28T05:54:54.301Z,66.19
2022-10-28T05:57:27.511Z,66.12
2022-10-28T06:00:00.619Z,66.29
2022-10-28T06:02:33.975Z,66.53
2022-10-28T06:05:08.505Z,66.52
2022-10-28T06:07:42.445Z,66.61
2022-10-28T06:10:16.611Z,66.76
2022-10-28T06:12:48.739Z,66.92
2022-10-28T06:15:22.123Z,66.96
2022-10-28T06:17:55.537Z,66.83
2022-10-28T06:20:29.203Z,66.81
2022-10-28T06:23:02.921Z,66.79
2022-10-28T06:25:36.521Z,66.73
2022-10-28T06:28:10.482Z,66.68
2022-10-28T06:30:43.838Z,66.44
2022-10-28T06:33:17.806Z,66.36
2022-10-28T06:35:52.511Z,66.50
2022-10-28T06:38:26.010Z,66.80
2022-10-28T06:40:59.690Z,67.17
2022-10-28T06:43:33.245Z,67.28
2022-10-28T06:46:07.257Z,67.45
2022-10-28T06:48:42.248Z,67.43
2022-10-28T06:51:17.068Z,67.18
2022-10-28T06:53:52.721Z,67.26
2022-10-28T06:56:26.096Z,67.54
2022-10-28T06:58:59.514Z,67.50
2022-10-28T07:01:33.218Z,67.37
2022-10-28T07:04:07.855Z,67.37
2022-10-28T07:06:41.902Z,67.40
2022-10-28T07:09:16.255Z,67.40
2022-10-28T07:11:54.949Z,67.50
2022-10-28T07:14:25.959Z,67.50
2022-10-28T07:16:59.258Z,67.63
2022-10-28T07:19:32.570Z,67.54
2022-10-28T07:22:05.751Z,67.59
2022-10-28T07:24:39.291Z,67.44
2022-10-28T07:27:12.774Z,67.36
2022-10-28T07:29:46.068Z,67.44
2022-10-28T07:32:19.182Z,67.33
2022-10-28T07:34:52.673Z,67.07
2022-10-28T07:37:25.731Z,67.02
2022-10-28T07:39:58.986Z,67.10
2022-10-28T07:42:34.395Z,67.26
2022-10-28T07:45:09.198Z,67.10
2022-10-28T07:47:42.626Z,67.11
2022-10-28T07:50:16.053Z,67.00
2022-10-28T07:52:50.160Z,67.04
2022-10-28T07:55:26.947Z,67.01
2022-10-28T07:57:59.996Z,66.73
2022-10-28T08:00:34.424Z,66.57
2022-10-28T08:03:08.094Z,66.58
2022-10-28T08:05:41.656Z,66.59
2022-10-28T08:08:15.186Z,66.61
2022-10-28T08:10:48.399Z,66.47
2022-10-28T08:13:21.659Z,66.29
2022-10-28T08:15:58.148Z,66.34
2022-10-28T08:18:31.711Z,66.40
2022-10-28T08:21:06.318Z,66.52
2022-10-28T08:23:41.581Z,66.74
2022-10-28T08:26:15.432Z,66.73
2022-10-28T08:28:48.763Z,66.56
2022-10-28T08:31:21.840Z,66.64
2022-10-28T08:33:55.036Z,66.63
2022-10-28T08:36:28.738Z,66.54
2022-10-28T08:39:03.171Z,66.23
2022-10-28T08:41:41.466Z,66.00
2022-10-28T08:44:45.861Z,65.87
2022-10-28T08:47:28.415Z,65.27
2022-10-28T08:50:04.819Z,62.52
2022-10-28T08:52:42.112Z,60.42
2022-10-28T08:55:19.117Z,59.02
2022-10-28T08:57:55.901Z,56.49
2022-10-28T09:00:32.321Z,55.32
2022-10-28T09:03:18.214Z,52.98
2022-10-28T09:05:53.926Z,51.65
2022-10-28T09:08:29.193Z,51.83
2022-10-28T09:11:27.526Z,53.13
2022-10-28T09:14:11.875Z,54.20
2022-10-28T09:16:47.757Z,55.52
2022-10-28T09:19:32.886Z,56.55
2022-10-28T09:22:13.772Z,57.02
2022-10-28T09:24:50.576Z,57.11
2022-10-28T09:27:32.099Z,56.04
2022-10-28T09:30:11.259Z,53.66
2022-10-28T09:32:47.311Z,50.12
2022-10-28T09:35:23.545Z,48.48
2022-10-28T09:38:00.089Z,47.19
2022-10-28T09:40:35.204Z,48.85
2022-10-28T09:46:00.852Z,50.21
2022-10-28T09:48:37.772Z,50.55
2022-10-28T09:51:18.895Z,51.27
2022-10-28T09:53:55.494Z,51.58
2022-10-28T09:56:30.256Z,52.09
2022-10-28T09:59:05.850Z,52.40
2022-10-28T10:01:41.888Z,52.93
2022-10-28T10:04:22.789Z,53.77
2022-10-28T10:06:59.038Z,54.79
2022-10-28T10:12:16.395Z,56.37
2022-10-28T10:14:52.630Z,56.99
2022-10-28T10:17:29.053Z,57.59
2022-10-28T10:20:06.511Z,58.06
2022-10-28T10:22:42.051Z,58.38
2022-10-28T10:25:31.256Z,58.69
2022-10-28T10:28:06.808Z,59.11
2022-10-28T10:30:43.224Z,59.30
2022-10-28T10:33:19.907Z,59.51
2022-10-28T10:36:00.409Z,59.48
2022-10-28T10:38:36.291Z,59.66
2022-10-28T10:41:09.919Z,59.90
2022-10-28T10:43:43.364Z,59.87
2022-10-28T10:46:18.899Z,59.93
2022-10-28T10:48:56.586Z,60.07
2022-10-28T10:51:30.826Z,60.32
2022-10-28T10:54:04.752Z,60.49
2022-10-28T10:56:38.216Z,60.71
2022-10-28T10:59:20.024Z,61.14
2022-10-28T11:01:54.811Z,61.46
2022-10-28T11:04:30.284Z,61.53
2022-10-28T11:07:04.121Z,61.62
2022-10-28T11:09:40.327Z,61.65
2022-10-28T11:15:23.633Z,61.77
2022-10-28T11:18:02.340Z,64.40
2022-10-28T11:20:44.314Z,62.87
2022-10-28T11:23:34.682Z,62.38
2022-10-28T11:26:10.458Z,62.19
2022-10-28T11:29:01.443Z,62.03
2022-10-28T11:32:02.403Z,62.28
2022-10-28T11:34:51.485Z,62.28
2022-10-28T11:37:29.292Z,62.40
2022-10-28T11:40:07.937Z,62.40
2022-10-28T11:42:45.215Z,62.38
2022-10-28T11:45:21.716Z,62.60
2022-10-28T11:48:03.573Z,62.75
2022-10-28T11:50:47.584Z,62.74
2022-10-28T11:53:44.770Z,62.74
2022-10-28T11:56:29.668Z,63.00
2022-10-28T11:59:10.982Z,63.13
2022-10-28T12:01:49.134Z,63.29
2022-10-28T12:04:37.147Z,63.36
2022-10-28T12:07:16.678Z,63.52
2022-10-28T12:10:01.239Z,63.42
2022-10-28T12:12:41.153Z,63.58
2022-10-28T12:15:18.851Z,63.60
2022-10-28T12:17:55.219Z,63.84
2022-10-28T12:20:32.930Z,64.08
2022-10-28T12:23:09.283Z,64.23
2022-10-28T12:25:45.176Z,64.22
2022-10-28T12:28:21.869Z,64.24
2022-10-28T12:30:58.509Z,64.36
2022-10-28T12:33:34.866Z,64.25
2022-10-28T12:36:23.736Z,64.43
2022-10-28T12:39:01.152Z,64.36
2022-10-28T12:41:46.945Z,64.35
2022-10-28T12:44:23.177Z,64.64
2022-10-28T12:49:48.822Z,65.00
2022-10-28T12:52:28.400Z,64.89
2022-10-28T12:55:05.233Z,65.15
2022-10-28T12:57:40.199Z,65.09
2022-10-28T13:00:20.221Z,64.91
2022-10-28T13:02:57.613Z,65.18
2022-10-28T13:05:35.686Z,65.22
2022-10-28T13:11:41.517Z,65.10
2022-10-28T13:14:22.403Z,65.23
2022-10-28T13:17:08.745Z,65.33
2022-10-28T13:19:59.336Z,65.14
2022-10-28T13:23:11.271Z,65.33
2022-10-28T13:25:54.225Z,65.33
2022-10-28T13:28:31.130Z,65.07
2022-10-28T13:31:06.180Z,65.14
2022-10-28T13:33:40.800Z,65.36
2022-10-28T13:36:20.059Z,65.45
2022-10-28T13:38:57.066Z,65.77
2022-10-28T13:41:43.399Z,65.72
2022-10-28T13:44:40.332Z,65.73
2022-10-28T13:47:33.404Z,65.98
2022-10-28T13:50:25.818Z,66.12
2022-10-28T13:53:47.420Z,66.05
2022-10-28T13:56:36.541Z,66.08
2022-10-28T13:59:20.103Z,66.11
2022-10-28T14:02:33.381Z,66.30
2022-10-28T14:04:43.968Z,66.56
2022-10-28T14:07:28.010Z,66.64
2022-10-28T14:10:22.163Z,66.86
2022-10-28T14:12:59.080Z,66.87
2022-10-28T14:15:35.184Z,67.01
2022-10-28T14:18:37.586Z,67.18
2022-10-28T14:20:57.936Z,67.03
2022-10-28T14:24:11.510Z,67.00
2022-10-28T14:27:33.471Z,67.03
2022-10-28T14:30:24.110Z,66.94
2022-10-28T14:33:22.027Z,66.86
2022-10-28T14:36:04.264Z,66.99
2022-10-28T14:39:01.812Z,67.10
2022-10-28T14:42:20.450Z,67.19
2022-10-28T14:47:57.931Z,67.54
2022-10-28T14:50:34.953Z,67.44
2022-10-28T14:53:10.269Z,67.60
2022-10-28T14:55:46.221Z,67.97
2022-10-28T14:58:25.757Z,68.02
2022-10-28T15:01:05.624Z,68.55
2022-10-28T15:03:39.749Z,68.93
2022-10-28T15:06:39.504Z,68.80
2022-10-28T15:09:33.140Z,69.24
2022-10-28T15:12:09.783Z,69.15
2022-10-28T15:14:44.940Z,69.17
2022-10-28T15:17:20.695Z,69.24
2022-10-28T15:19:55.767Z,69.06
2022-10-28T15:22:30.944Z,69.06
2022-10-28T15:25:06.032Z,69.30
2022-10-28T15:27:41.292Z,69.44
2022-10-28T15:30:20.910Z,69.40
2022-10-28T15:32:55.001Z,69.73
2022-10-28T15:35:39.805Z,69.93
2022-10-28T15:38:36.327Z,70.09
2022-10-28T15:41:46.398Z,70.30
2022-10-28T15:44:37.521Z,70.62
2022-10-28T15:47:27.729Z,70.85
2022-10-28T15:50:15.364Z,70.98
2022-10-28T15:52:51.168Z,70.84
2022-10-28T15:55:47.797Z,70.33
2022-10-28T15:58:29.551Z,70.68
2022-10-28T16:01:06.502Z,70.75
2022-10-28T16:03:48.671Z,70.98
2022-10-28T16:06:29.487Z,70.99
2022-10-28T16:09:10.322Z,70.90
2022-10-28T16:11:48.798Z,70.83
2022-10-28T16:14:37.861Z,70.80
2022-10-28T16:17:19.054Z,70.84
2022-10-28T16:19:58.114Z,70.79
2022-10-28T16:22:35.512Z,70.93
2022-10-28T16:25:14.908Z,70.93
2022-10-28T16:27:48.505Z,71.08
2022-10-28T16:32:56.462Z,71.42
2022-10-28T16:35:30.272Z,71.42
2022-10-28T16:38:06.734Z,71.48
2022-10-28T16:40:51.585Z,71.42
2022-10-28T16:43:21.790Z,71.48
2022-10-28T16:45:58.452Z,71.45
2022-10-28T16:48:39.631Z,71.51
2022-10-28T16:51:18.087Z,71.41
2022-10-28T16:53:52.610Z,71.61
2022-10-28T16:56:29.077Z,71.79
2022-10-28T16:59:03.099Z,72.08
2022-10-28T17:01:39.198Z,72.44
2022-10-28T17:04:15.549Z,72.56
2022-10-28T17:06:51.823Z,72.37
2022-10-28T17:09:28.437Z,72.25
2022-10-28T17:12:02.658Z,72.31
2022-10-28T17:14:38.395Z,72.12
2022-10-28T17:17:15.879Z,71.89
2022-10-28T17:19:50.088Z,71.77
2022-10-28T17:22:30.476Z,71.63
2022-10-28T17:25:09.619Z,71.67
2022-10-28T17:27:48.848Z,71.66
2022-10-28T17:30:26.569Z,71.67
2022-10-28T17:33:00.828Z,71.62
2022-10-28T17:35:36.906Z,71.70
2022-10-28T17:38:17.513Z,71.67
2022-10-28T17:40:57.344Z,71.76
2022-10-28T17:43:32.499Z,71.78
2022-10-28T17:46:11.096Z,71.75
2022-10-28T17:48:49.409Z,71.69
2022-10-28T17:51:24.912Z,71.74
2022-10-28T17:53:59.775Z,71.62
2022-10-28T17:56:32.810Z,71.47
2022-10-28T17:59:07.544Z,71.41
2022-10-28T18:01:47.874Z,71.54
2022-10-28T18:04:25.276Z,71.55
2022-10-28T18:06:59.307Z,71.59
2022-10-28T18:09:34.298Z,71.51
2022-10-28T18:12:13.477Z,71.62
2022-10-28T18:14:51.579Z,71.69
2022-10-28T18:17:44.713Z,71.74
2022-10-28T18:20:18.539Z,71.70
2022-10-28T18:22:54.447Z,71.70
2022-10-28T18:25:29.588Z,71.78
2022-10-28T18:28:08.217Z,71.89
2022-10-28T18:30:46.346Z,71.99
2022-10-28T18:33:19.554Z,71.88
2022-10-28T18:35:52.811Z,71.99
2022-10-28T18:38:26.622Z,72.02
2022-10-28T18:41:00.012Z,71.95
2022-10-28T18:43:33.337Z,71.87
2022-10-28T18:46:07.062Z,72.07
2022-10-28T18:48:41.164Z,72.10
2022-10-28T18:51:16.796Z,72.36
2022-10-28T18:53:51.368Z,72.42
2022-10-28T18:56:26.319Z,72.45
2022-10-28T18:59:00.228Z,72.64
2022-10-28T19:01:34.540Z,72.87
2022-10-28T19:04:08.269Z,73.10
2022-10-28T19:06:42.483Z,73.37
2022-10-28T19:09:16.349Z,73.47
2022-10-28T19:11:49.801Z,73.59
2022-10-28T19:14:23.639Z,73.56
2022-10-28T19:16:57.240Z,73.62
2022-10-28T19:19:33.215Z,73.87
2022-10-28T19:22:05.850Z,74.03
2022-10-28T19:24:39.542Z,74.02
2022-10-28T19:27:13.305Z,74.23
2022-10-28T19:29:47.771Z,74.23
2022-10-28T19:32:20.930Z,74.26
2022-10-28T19:34:54.328Z,74.22
2022-10-28T19:37:28.084Z,74.28
2022-10-28T19:40:01.505Z,74.35
2022-10-28T19:42:34.861Z,74.47
2022-10-28T19:45:11.802Z,74.50
2022-10-28T19:47:45.216Z,74.42
2022-10-28T19:50:19.275Z,74.54
2022-10-28T19:52:53.805Z,74.69
2022-10-28T19:55:27.336Z,74.72
2022-10-28T19:58:00.864Z,74.82
2022-10-28T20:00:34.472Z,74.87
2022-10-28T20:03:07.916Z,74.80
2022-10-28T20:05:42.018Z,74.66
2022-10-28T20:08:17.131Z,74.74
2022-10-28T20:11:00.861Z,74.93
2022-10-28T20:13:34.724Z,74.91
2022-10-28T20:16:11.844Z,74.95
2022-10-28T20:18:45.303Z,74.90
2022-10-28T20:21:20.318Z,74.83
2022-10-28T20:23:55.608Z,74.90
2022-10-28T20:26:31.021Z,75.03
2022-10-28T20:31:46.269Z,75.25
2022-10-28T20:34:19.879Z,75.04
2022-10-28T20:36:53.521Z,75.02
2022-10-28T20:39:27.638Z,74.88
2022-10-28T20:42:00.987Z,74.77
2022-10-28T20:44:34.391Z,74.80
2022-10-28T20:47:08.051Z,74.93
2022-10-28T20:49:42.836Z,75.02
2022-10-28T20:52:16.784Z,75.02
2022-10-28T20:54:50.221Z,75.13
2022-10-28T20:57:23.788Z,75.19
2022-10-28T20:59:57.197Z,75.22
2022-10-28T21:02:30.609Z,75.44
2022-10-28T21:05:04.132Z,75.48
2022-10-28T21:07:37.722Z,75.57
2022-10-28T21:10:12.751Z,75.64
2022-10-28T21:12:46.264Z,75.76
2022-10-28T21:15:20.065Z,75.95
2022-10-28T21:17:53.772Z,75.97
2022-10-28T21:20:27.476Z,75.86
2022-10-28T21:23:01.421Z,75.77
2022-10-28T21:25:35.193Z,75.79
2022-10-28T21:28:09.009Z,75.78
2022-10-28T21:30:42.519Z,75.80
2022-10-28T21:33:17.239Z,75.93
2022-10-28T21:35:58.611Z,75.82
2022-10-28T21:38:32.097Z,76.02
2022-10-28T21:41:09.663Z,76.05
2022-10-28T21:43:44.216Z,76.15
2022-10-28T21:46:18.367Z,76.19
2022-10-28T21:48:52.146Z,76.15
2022-10-28T21:51:25.638Z,76.19
2022-10-28T21:53:58.797Z,76.19
2022-10-28T21:56:32.227Z,76.22
2022-10-28T21:59:05.551Z,76.31
2022-10-28T22:01:39.194Z,76.33
2022-10-28T22:04:12.302Z,76.27
2022-10-28T22:09:19.248Z,76.25
2022-10-28T22:11:52.661Z,76.29
2022-10-28T22:14:26.096Z,76.38
2022-10-28T22:16:59.484Z,76.41
2022-10-28T22:19:32.916Z,76.36
2022-10-28T22:22:06.766Z,76.42
2022-10-28T22:24:40.103Z,76.53
2022-10-28T22:27:14.211Z,76.58
2022-10-28T22:29:47.733Z,76.59
2022-10-28T22:32:21.168Z,76.56
2022-10-28T22:34:54.576Z,76.63
2022-10-28T22:37:27.926Z,76.70
2022-10-28T22:40:01.215Z,76.75
2022-10-28T22:42:34.641Z,76.78
2022-10-28T22:45:09.896Z,76.73
2022-10-28T22:47:43.432Z,76.82
2022-10-28T22:50:16.713Z,76.92
2022-10-28T22:52:49.983Z,76.99
2022-10-28T22:55:23.308Z,77.07
2022-10-28T22:57:58.034Z,77.11
2022-10-28T23:00:31.394Z,77.10
2022-10-28T23:03:04.967Z,77.13
2022-10-28T23:05:38.673Z,77.17
2022-10-28T23:08:14.876Z,77.27
2022-10-28T23:10:48.148Z,77.41
2022-10-28T23:13:21.188Z,77.51
2022-10-28T23:15:54.516Z,77.63
2022-10-28T23:18:29.845Z,77.69
2022-10-28T23:21:08.897Z,77.77
2022-10-28T23:23:43.378Z,77.81
2022-10-28T23:26:17.257Z,77.81
2022-10-28T23:28:52.973Z,77.92
2022-10-28T23:31:27.721Z,77.94
2022-10-28T23:34:01.306Z,77.88
2022-10-28T23:36:34.996Z,77.80
2022-10-28T23:39:08.374Z,77.69
2022-10-28T23:41:41.721Z,77.60
2022-10-28T23:44:15.232Z,77.55
2022-10-28T23:46:48.619Z,77.44
2022-10-28T23:49:21.724Z,77.39
2022-10-28T23:51:54.920Z,77.42
2022-10-28T23:54:28.337Z,77.46
2022-10-28T23:57:01.704Z,77.44
2022-10-28T23:59:35.014Z,77.54
